Station info - map view · info · telemetry · weather · raw · status · beacons · messages · bulletins · browse · moving · my account
Callsign, ship name or locator: Clear       
It is possible to search using wildcards (*?) after a prefix. Example: OH*
APRS station KF7VWA - show graphs
Map loading...
Comment: !!!146.520!!!
Mic-E message: En route
Location: 47°12.13' N 123°05.03' W - locator CN87KE98WM - show map - static map
1.2 miles Southeast bearing 138° from Shelton, Mason County, Washington, United States [?]
13.4 miles Northeast bearing 40° from McCleary, Grays Harbor County, Washington, United States
30.2 miles West bearing 264° from Tacoma, Pierce County, Washington, United States
44.9 miles Southwest bearing 232° from Seattle, King County, Washington, United States
Last position: 2017-06-24 22:13:16 EDT (1d 18h39m ago)
2017-06-24 19:13:16 PDT local time at Shelton, United States [?]
Altitude: 207 ft
Course: 91°
Speed: 15 MPH
Device: Kenwood: TM-D710 (rig)
Last path: KF7VWA>TW1RQS via ERINB,WIDE1*,qAR,K7NVH-1 (good)
Positions stored: 3117
Packet rate: 112 seconds between packets on average during 5575 seconds.
Stations near current position of KF7VWA - show more
callsign distance last heard - EDT      callsign distance last heard - EDT
KE7GLN0.6 miles 241°2017-06-19 11:51:14 KI7ILS-101.7 miles 314°2017-05-31 11:48:02
KE7GLN-91.9 miles 94°2017-06-26 12:10:29 KSHN3.2 miles 313°2017-06-10 08:09:54
R V SKOOKUM3.5 miles 85°2017-06-09 18:42:56 Teachgeek3.9 miles 83°2017-06-26 13:41:04
W7CST4.9 miles 321°2017-06-26 16:50:18 WB7OXJ5.9 miles 13°2017-06-26 16:40:30
EW41605.9 miles 91°2017-06-26 16:51:28 N1MEH6.4 miles 303°2017-06-25 23:50:40
AC7VA-77.6 miles 27°2017-06-25 18:38:14 KI7JD10.5 miles 357°2017-06-26 10:49:13
DW720210.9 miles 55°2017-06-26 16:45:16 DW478411.7 miles 343°2017-06-26 16:50:47
DW934612.0 miles 61°2017-06-11 11:22:04 halpilot-ios13.5 miles 109°2017-06-25 08:50:29
VSOMTN14.4 miles 296°2017-06-26 16:29:14 CW297314.6 miles 133°2017-06-26 00:33:33
KC9EBT-714.6 miles 149°2017-06-26 16:50:41 KC9EBT-114.6 miles 149°2017-06-02 03:31:19
Stations which heard KF7VWA directly on radio –
callsign pkts first heard - EDT last heard longest (tx => rx) longest at - EDT
BULLMT 4 2017-06-24 15:37:19 2017-06-24 17:03:28 CN85OW > CN85OK 36.8 miles 183° 2017-06-24 17:03:28
MEGLER 44 2017-06-24 18:21:45 2017-06-24 20:04:06 CN86DE > CN86BG 12.8 miles 309° 2017-06-24 18:21:45
WW7RA 12 2017-06-24 12:33:34 2017-06-24 21:54:04 CN86CQ > CN87ON 76.9 miles 38° 2017-06-24 20:43:23
W7AUW 1 2017-06-24 21:15:11 2017-06-24 21:15:11 CN86DW > CN86BX 9.8 miles 288° 2017-06-24 21:15:11
W7PFR-1 5 2017-06-24 12:49:33 2017-06-24 21:50:02 CN87HF > CN86UU 59.7 miles 117° 2017-06-24 21:50:02
SOMTN 52 2017-06-24 12:29:00 2017-06-24 22:11:15 CN76XI > CN87HH 75.0 miles 26° 2017-06-24 19:53:28
KC7ILK 2 2017-06-24 16:36:09 2017-06-24 16:38:10 CN85RP > CN85QP 3.5 miles 280° 2017-06-24 16:36:09
ERINB 3 2017-06-24 12:25:56 2017-06-24 22:13:16 CN87KE > CN87MQ 33.0 miles 13° 2017-06-24 12:31:03
W7CST 1 2017-06-24 21:48:01 2017-06-24 21:48:01 CN87HF > CN87KG 12.2 miles 82° 2017-06-24 21:48:01
AC7UP 14 2017-06-24 14:08:57 2017-06-24 14:44:24 CN86NF > CN86ML 19.2 miles 350° 2017-06-24 14:44:24
LOKOUT 5 2017-06-24 15:05:34 2017-06-24 16:57:31 CN85OW > CN85WT 32.3 miles 105° 2017-06-24 16:57:31
W7HR-2 4 2017-06-24 12:25:25 2017-06-24 12:39:19 CN87KE > CN87RN 34.5 miles 46° 2017-06-24 12:25:25
N7BDW-10 23 2017-06-24 15:07:04 2017-06-24 16:46:14 CN85PW > CN85PR 14.9 miles 173° 2017-06-24 15:08:35
BALDPK 25 2017-06-24 15:01:31 2017-06-24 16:51:51 CN85OW > CN85LJ 39.4 miles 199° 2017-06-24 15:01:31
W7WSW-10 2 2017-06-24 20:35:18 2017-06-24 20:39:50 CN86AQ > CN77WA 25.7 miles 335° 2017-06-24 20:35:18
NA7Q-2 3 2017-06-24 18:22:44 2017-06-24 19:03:19 CN86BE > CN86DI 13.6 miles 30° 2017-06-24 19:03:19
KNAPPA 57 2017-06-24 17:47:31 2017-06-24 20:17:11 CN76XI > CN86FE 26.4 miles 117° 2017-06-24 19:42:51
SADDLE 8 2017-06-24 15:15:04 2017-06-24 16:47:16 CN85RQ > CN85HN 40.9 miles 260° 2017-06-24 15:56:58
NICOLI 26 2017-06-24 14:47:57 2017-06-24 20:50:28 CN86DQ > CN86GC 43.1 miles 162° 2017-06-24 20:50:28
KB7CZ-15 37 2017-06-24 14:45:54 2017-06-24 17:45:00 CN86HD > CN86MD 21.0 miles 88° 2017-06-24 17:45:00
JUPITR 3 2017-06-24 22:03:10 2017-06-24 22:12:15 CN87JF > CN87MQ 34.6 miles 16° 2017-06-24 22:03:10

Only position packets which were originated by the station are shown here. The range statistics show some extra long hops, because some digipeaters do not correctly add themselves to the digipeater path. Please check the raw packets.
About this site
This page shows real-time information collected from the Automatic Position Reporting System Internet network (APRS-IS). APRS is used by amateur (ham) radio operators to transmit real-time position information, weather data, telemetry and messages over the radio. A vehicle equipped with a GPS receiver, a VHF transmitter or HF transceiver and a small computer device called a tracker transmits it's location, speed and course in a small data packet, which is then received by a nearby iGate receiving site which forwards the packet on the Internet. Systems connected to the Internet can send information on the APRS-IS without a radio transmitter, or collect and display information transmitted anywhere in the world.
FAQ · Blog · Discussion group · Linking to aprs.fi · AIS sites · Service status · Database statistics · Advertising on aprs.fi · Technical details · API · Change log · Planned changes · Credits and thanks · Terms Of Service · iPhone/iPad APRS